sensor_id;sensor_type;location;lat;lon;timestamp;pressure;altitude;pressure_sealevel;temperature;humidity
63194;BME280;49289;51.670;5.624;2023-03-23T00:00:21;100382.55;;;17.55;61.56
63194;BME280;49289;51.670;5.624;2023-03-23T00:02:10;100375.22;;;17.63;60.68
63194;BME280;49289;51.670;5.624;2023-03-23T00:03:59;100389.37;;;17.33;61.20
63194;BME280;49289;51.670;5.624;2023-03-23T00:05:47;100395.78;;;17.84;60.13
63194;BME280;49289;51.670;5.624;2023-03-23T00:07:36;100392.47;;;17.74;60.99
63194;BME280;49289;51.670;5.624;2023-03-23T00:09:11;100400.68;;;18.03;59.66
63194;BME280;49289;51.670;5.624;2023-03-23T00:11:01;100404.69;;;17.94;60.35
63194;BME280;49289;51.670;5.624;2023-03-23T00:12:50;100408.57;;;18.05;59.52
63194;BME280;49289;51.670;5.624;2023-03-23T00:14:39;100407.02;;;17.98;59.54
63194;BME280;49289;51.670;5.624;2023-03-23T00:16:28;100396.05;;;17.62;60.74
63194;BME280;49289;51.670;5.624;2023-03-23T00:18:16;100406.69;;;17.98;60.06
63194;BME280;49289;51.670;5.624;2023-03-23T00:20:05;100388.19;;;18.01;59.46
63194;BME280;49289;51.670;5.624;2023-03-23T00:21:40;100367.16;;;17.74;59.37
63194;BME280;49289;51.670;5.624;2023-03-23T00:23:28;100386.05;;;17.60;60.49
63194;BME280;49289;51.670;5.624;2023-03-23T00:25:18;100404.16;;;18.24;59.45
63194;BME280;49289;51.670;5.624;2023-03-23T00:27:07;100390.38;;;17.84;59.92
63194;BME280;49289;51.670;5.624;2023-03-23T00:28:56;100412.33;;;17.96;59.84
63194;BME280;49289;51.670;5.624;2023-03-23T00:30:45;100415.72;;;17.63;59.88
63194;BME280;49289;51.670;5.624;2023-03-23T00:32:33;100403.86;;;17.96;59.47
63194;BME280;49289;51.670;5.624;2023-03-23T00:34:23;100417.45;;;18.31;58.89
63194;BME280;49289;51.670;5.624;2023-03-23T00:36:11;100392.81;;;18.12;58.75
63194;BME280;49289;51.670;5.624;2023-03-23T00:37:59;100389.66;;;17.78;59.23
63194;BME280;49289;51.670;5.624;2023-03-23T00:39:48;100406.07;;;18.25;58.99
63194;BME280;49289;51.670;5.624;2023-03-23T00:41:37;100389.58;;;18.15;59.13
63194;BME280;49289;51.670;5.624;2023-03-23T00:43:27;100410.91;;;18.36;58.55
63194;BME280;49289;51.670;5.624;2023-03-23T00:45:16;100419.14;;;17.31;60.71
63194;BME280;49289;51.670;5.624;2023-03-23T00:47:05;100392.72;;;17.74;60.11
63194;BME280;49289;51.670;5.624;2023-03-23T00:49:05;100411.06;;;18.05;59.11
63194;BME280;49289;51.670;5.624;2023-03-23T00:50:54;100411.89;;;18.07;59.48
63194;BME280;49289;51.670;5.624;2023-03-23T00:52:43;100394.05;;;17.75;59.89
63194;BME280;49289;51.670;5.624;2023-03-23T00:54:32;100385.66;;;17.88;59.63
63194;BME280;49289;51.670;5.624;2023-03-23T00:56:22;100403.59;;;17.50;60.03
63194;BME280;49289;51.670;5.624;2023-03-23T00:58:11;100383.17;;;18.08;59.20
63194;BME280;49289;51.670;5.624;2023-03-23T00:59:45;100389.55;;;18.29;59.27
63194;BME280;49289;51.670;5.624;2023-03-23T01:01:36;100394.05;;;18.09;59.43
63194;BME280;49289;51.670;5.624;2023-03-23T01:03:25;100408.73;;;17.72;61.59
63194;BME280;49289;51.670;5.624;2023-03-23T01:05:15;100398.55;;;17.64;62.44
63194;BME280;49289;51.670;5.624;2023-03-23T01:06:50;100391.03;;;17.60;62.99
63194;BME280;49289;51.670;5.624;2023-03-23T01:08:39;100387.08;;;17.74;62.80
63194;BME280;49289;51.670;5.624;2023-03-23T01:10:30;100369.55;;;17.43;63.81
63194;BME280;49289;51.670;5.624;2023-03-23T01:12:04;100370.25;;;17.63;63.08
63194;BME280;49289;51.670;5.624;2023-03-23T01:13:53;100348.76;;;17.63;63.32
63194;BME280;49289;51.670;5.624;2023-03-23T01:15:43;100359.52;;;17.72;63.63
63194;BME280;49289;51.670;5.624;2023-03-23T01:17:31;100362.80;;;17.24;63.95
63194;BME280;49289;51.670;5.624;2023-03-23T01:19:20;100358.67;;;17.60;63.83
63194;BME280;49289;51.670;5.624;2023-03-23T01:21:11;100371.80;;;17.08;64.70
63194;BME280;49289;51.670;5.624;2023-03-23T01:22:58;100336.34;;;17.24;64.54
63194;BME280;49289;51.670;5.624;2023-03-23T01:24:48;100337.95;;;17.22;64.46
63194;BME280;49289;51.670;5.624;2023-03-23T01:26:37;100338.20;;;17.73;64.10
63194;BME280;49289;51.670;5.624;2023-03-23T01:28:26;100314.14;;;17.77;63.11
63194;BME280;49289;51.670;5.624;2023-03-23T01:30:15;100323.12;;;17.50;64.03
63194;BME280;49289;51.670;5.624;2023-03-23T01:32:04;100311.18;;;17.67;63.33
63194;BME280;49289;51.670;5.624;2023-03-23T01:33:53;100331.36;;;17.57;64.11
63194;BME280;49289;51.670;5.624;2023-03-23T01:35:42;100330.25;;;17.33;64.68
63194;BME280;49289;51.670;5.624;2023-03-23T01:37:31;100313.84;;;17.36;64.34
63194;BME280;49289;51.670;5.624;2023-03-23T01:39:05;100324.13;;;17.67;63.42
63194;BME280;49289;51.670;5.624;2023-03-23T01:40:55;100316.50;;;17.39;64.02
63194;BME280;49289;51.670;5.624;2023-03-23T01:42:43;100303.12;;;17.30;64.12
63194;BME280;49289;51.670;5.624;2023-03-23T01:46:47;100314.06;;;17.78;63.59
63194;BME280;49289;51.670;5.624;2023-03-23T01:48:35;100313.26;;;18.10;62.60
63194;BME280;49289;51.670;5.624;2023-03-23T01:50:24;100313.81;;;17.77;62.85
63194;BME280;49289;51.670;5.624;2023-03-23T01:52:13;100311.94;;;17.83;62.07
63194;BME280;49289;51.670;5.624;2023-03-23T01:54:01;100299.75;;;17.86;62.56
63194;BME280;49289;51.670;5.624;2023-03-23T01:55:49;100316.32;;;17.34;63.30
63194;BME280;49289;51.670;5.624;2023-03-23T01:57:39;100304.66;;;16.87;64.58
63194;BME280;49289;51.670;5.624;2023-03-23T01:59:29;100316.38;;;17.76;62.49
63194;BME280;49289;51.670;5.624;2023-03-23T02:01:17;100295.66;;;17.31;62.59
63194;BME280;49289;51.670;5.624;2023-03-23T02:03:06;100305.34;;;17.74;61.92
63194;BME280;49289;51.670;5.624;2023-03-23T02:04:57;100299.23;;;17.48;62.67
63194;BME280;49289;51.670;5.624;2023-03-23T02:06:43;100295.11;;;17.91;61.15
63194;BME280;49289;51.670;5.624;2023-03-23T02:08:30;100302.88;;;18.11;60.70
63194;BME280;49289;51.670;5.624;2023-03-23T02:10:18;100290.39;;;18.00;61.08
63194;BME280;49289;51.670;5.624;2023-03-23T02:12:06;100285.14;;;17.86;60.46
63194;BME280;49289;51.670;5.624;2023-03-23T02:13:54;100290.44;;;17.66;61.54
63194;BME280;49289;51.670;5.624;2023-03-23T02:15:46;100273.20;;;17.52;61.88
63194;BME280;49289;51.670;5.624;2023-03-23T02:17:35;100288.13;;;17.83;61.27
63194;BME280;49289;51.670;5.624;2023-03-23T02:19:37;100282.38;;;17.43;62.38
63194;BME280;49289;51.670;5.624;2023-03-23T02:24:04;100259.57;;;17.67;61.62
63194;BME280;49289;51.670;5.624;2023-03-23T02:26:09;100273.20;;;17.37;62.40
63194;BME280;49289;51.670;5.624;2023-03-23T02:28:13;100268.46;;;17.87;60.82
63194;BME280;49289;51.670;5.624;2023-03-23T02:30:08;100276.95;;;17.69;61.32
63194;BME280;49289;51.670;5.624;2023-03-23T02:32:09;100266.38;;;17.49;62.11
63194;BME280;49289;51.670;5.624;2023-03-23T02:33:58;100283.83;;;17.41;62.14
63194;BME280;49289;51.670;5.624;2023-03-23T02:35:46;100270.70;;;17.50;61.43
63194;BME280;49289;51.670;5.624;2023-03-23T02:37:34;100289.46;;;17.88;61.28
63194;BME280;49289;51.670;5.624;2023-03-23T02:39:21;100292.03;;;17.54;61.04
63194;BME280;49289;51.670;5.624;2023-03-23T02:41:08;100272.88;;;17.68;61.47
63194;BME280;49289;51.670;5.624;2023-03-23T02:42:56;100274.75;;;17.66;61.09
63194;BME280;49289;51.670;5.624;2023-03-23T02:44:44;100284.33;;;17.41;62.11
63194;BME280;49289;51.670;5.624;2023-03-23T02:46:31;100262.25;;;17.56;61.59
63194;BME280;49289;51.670;5.624;2023-03-23T02:48:18;100276.57;;;17.62;61.25
63194;BME280;49289;51.670;5.624;2023-03-23T02:50:05;100275.56;;;18.07;60.15
63194;BME280;49289;51.670;5.624;2023-03-23T02:51:52;100272.43;;;18.58;58.78
63194;BME280;49289;51.670;5.624;2023-03-23T02:53:40;100259.53;;;18.20;59.36
63194;BME280;49289;51.670;5.624;2023-03-23T02:55:28;100260.45;;;18.05;58.79
63194;BME280;49289;51.670;5.624;2023-03-23T02:57:16;100277.27;;;17.94;59.96
63194;BME280;49289;51.670;5.624;2023-03-23T02:59:05;100281.82;;;18.32;59.21
63194;BME280;49289;51.670;5.624;2023-03-23T03:00:53;100269.38;;;17.92;60.07
63194;BME280;49289;51.670;5.624;2023-03-23T03:02:42;100279.28;;;17.75;60.23
63194;BME280;49289;51.670;5.624;2023-03-23T03:04:30;100263.52;;;18.16;59.56
63194;BME280;49289;51.670;5.624;2023-03-23T03:06:20;100279.55;;;18.19;59.48
63194;BME280;49289;51.670;5.624;2023-03-23T03:08:11;100282.89;;;18.40;58.52
63194;BME280;49289;51.670;5.624;2023-03-23T03:09:59;100276.88;;;17.73;60.11
63194;BME280;49289;51.670;5.624;2023-03-23T03:11:46;100277.45;;;17.73;60.38
63194;BME280;49289;51.670;5.624;2023-03-23T03:13:37;100278.20;;;17.75;59.88
63194;BME280;49289;51.670;5.624;2023-03-23T03:15:27;100253.76;;;17.64;60.76
63194;BME280;49289;51.670;5.624;2023-03-23T03:17:17;100268.98;;;17.56;62.00
63194;BME280;49289;51.670;5.624;2023-03-23T03:19:05;100265.88;;;17.44;62.56
63194;BME280;49289;51.670;5.624;2023-03-23T03:20:52;100271.98;;;17.09;63.31
63194;BME280;49289;51.670;5.624;2023-03-23T03:22:39;100268.44;;;17.42;62.83
63194;BME280;49289;51.670;5.624;2023-03-23T03:24:27;100277.48;;;17.26;62.50
63194;BME280;49289;51.670;5.624;2023-03-23T03:26:15;100284.54;;;17.66;62.17
63194;BME280;49289;51.670;5.624;2023-03-23T03:28:03;100287.78;;;17.48;62.18
63194;BME280;49289;51.670;5.624;2023-03-23T03:29:51;100282.83;;;17.56;62.13
63194;BME280;49289;51.670;5.624;2023-03-23T03:31:39;100274.10;;;17.50;62.43
63194;BME280;49289;51.670;5.624;2023-03-23T03:33:27;100272.61;;;17.50;62.05
63194;BME280;49289;51.670;5.624;2023-03-23T03:35:15;100290.48;;;17.73;61.71
63194;BME280;49289;51.670;5.624;2023-03-23T03:37:03;100284.42;;;17.71;61.28
63194;BME280;49289;51.670;5.624;2023-03-23T03:38:55;100283.78;;;17.26;62.21
63194;BME280;49289;51.670;5.624;2023-03-23T03:40:42;100277.72;;;17.80;61.17
63194;BME280;49289;51.670;5.624;2023-03-23T03:42:29;100283.02;;;17.76;60.70
63194;BME280;49289;51.670;5.624;2023-03-23T03:44:16;100285.98;;;17.53;61.35
63194;BME280;49289;51.670;5.624;2023-03-23T03:46:03;100272.42;;;17.62;61.20
63194;BME280;49289;51.670;5.624;2023-03-23T03:47:50;100273.94;;;17.19;61.80
63194;BME280;49289;51.670;5.624;2023-03-23T03:49:37;100289.93;;;17.63;60.79
63194;BME280;49289;51.670;5.624;2023-03-23T03:51:25;100275.83;;;17.27;61.36
63194;BME280;49289;51.670;5.624;2023-03-23T03:53:11;100273.98;;;17.23;61.58
63194;BME280;49289;51.670;5.624;2023-03-23T03:54:59;100272.28;;;17.33;61.07
63194;BME280;49289;51.670;5.624;2023-03-23T03:56:47;100277.07;;;17.43;61.24
63194;BME280;49289;51.670;5.624;2023-03-23T03:58:36;100275.84;;;17.51;61.17
63194;BME280;49289;51.670;5.624;2023-03-23T04:00:24;100287.44;;;17.44;60.88
63194;BME280;49289;51.670;5.624;2023-03-23T04:02:11;100290.47;;;16.97;62.13
63194;BME280;49289;51.670;5.624;2023-03-23T04:03:58;100289.52;;;17.16;61.82
63194;BME280;49289;51.670;5.624;2023-03-23T04:05:45;100278.78;;;17.72;60.01
63194;BME280;49289;51.670;5.624;2023-03-23T04:07:32;100292.96;;;17.69;60.02
63194;BME280;49289;51.670;5.624;2023-03-23T04:09:19;100278.58;;;16.89;61.29
63194;BME280;49289;51.670;5.624;2023-03-23T04:11:06;100301.36;;;17.27;61.30
63194;BME280;49289;51.670;5.624;2023-03-23T04:12:53;100278.23;;;17.15;61.06
63194;BME280;49289;51.670;5.624;2023-03-23T04:14:40;100290.29;;;16.95;61.26
63194;BME280;49289;51.670;5.624;2023-03-23T04:16:28;100296.09;;;17.06;61.73
63194;BME280;49289;51.670;5.624;2023-03-23T04:18:17;100296.22;;;17.16;60.82
63194;BME280;49289;51.670;5.624;2023-03-23T04:20:05;100291.22;;;16.82;61.23
63194;BME280;49289;51.670;5.624;2023-03-23T04:21:53;100281.54;;;17.25;60.29
63194;BME280;49289;51.670;5.624;2023-03-23T04:23:40;100293.39;;;17.76;58.90
63194;BME280;49289;51.670;5.624;2023-03-23T04:25:29;100294.16;;;17.62;58.16
63194;BME280;49289;51.670;5.624;2023-03-23T04:27:17;100299.92;;;17.57;58.81
63194;BME280;49289;51.670;5.624;2023-03-23T04:29:06;100300.24;;;17.84;57.99
63194;BME280;49289;51.670;5.624;2023-03-23T04:30:54;100301.75;;;17.58;58.82
63194;BME280;49289;51.670;5.624;2023-03-23T04:32:43;100300.56;;;17.33;58.75
63194;BME280;49289;51.670;5.624;2023-03-23T04:34:31;100293.06;;;17.78;58.07
63194;BME280;49289;51.670;5.624;2023-03-23T04:36:20;100294.77;;;17.36;58.10
63194;BME280;49289;51.670;5.624;2023-03-23T04:38:07;100306.52;;;17.32;58.80
63194;BME280;49289;51.670;5.624;2023-03-23T04:39:56;100299.05;;;17.44;57.98
63194;BME280;49289;51.670;5.624;2023-03-23T04:41:45;100315.90;;;17.62;57.73
63194;BME280;49289;51.670;5.624;2023-03-23T04:43:34;100306.06;;;17.41;58.32
63194;BME280;49289;51.670;5.624;2023-03-23T04:45:24;100322.13;;;17.36;58.19
63194;BME280;49289;51.670;5.624;2023-03-23T04:49:14;100304.23;;;17.41;57.81
63194;BME280;49289;51.670;5.624;2023-03-23T04:51:02;100296.79;;;17.23;57.49
63194;BME280;49289;51.670;5.624;2023-03-23T04:52:50;100322.70;;;17.06;59.10
63194;BME280;49289;51.670;5.624;2023-03-23T04:54:40;100309.47;;;17.11;58.50
63194;BME280;49289;51.670;5.624;2023-03-23T04:56:27;100322.69;;;17.44;58.33
63194;BME280;49289;51.670;5.624;2023-03-23T04:58:16;100303.44;;;17.15;58.91
63194;BME280;49289;51.670;5.624;2023-03-23T05:00:05;100316.55;;;16.91;59.60
63194;BME280;49289;51.670;5.624;2023-03-23T05:01:53;100303.58;;;17.10;58.74
63194;BME280;49289;51.670;5.624;2023-03-23T05:03:40;100299.64;;;17.18;58.56
63194;BME280;49289;51.670;5.624;2023-03-23T05:05:28;100330.90;;;16.94;59.39
63194;BME280;49289;51.670;5.624;2023-03-23T05:07:15;100307.87;;;16.74;59.62
63194;BME280;49289;51.670;5.624;2023-03-23T05:09:04;100328.39;;;17.15;58.94
63194;BME280;49289;51.670;5.624;2023-03-23T05:10:55;100327.09;;;16.96;59.65
63194;BME280;49289;51.670;5.624;2023-03-23T05:12:43;100314.87;;;17.13;58.46
63194;BME280;49289;51.670;5.624;2023-03-23T05:14:31;100300.97;;;17.31;58.06
63194;BME280;49289;51.670;5.624;2023-03-23T05:16:19;100305.80;;;16.98;58.32
63194;BME280;49289;51.670;5.624;2023-03-23T05:18:06;100301.91;;;16.98;58.56
63194;BME280;49289;51.670;5.624;2023-03-23T05:19:56;100320.70;;;16.93;58.82
63194;BME280;49289;51.670;5.624;2023-03-23T05:21:43;100317.25;;;17.55;57.13
63194;BME280;49289;51.670;5.624;2023-03-23T05:23:31;100315.52;;;17.39;57.51
63194;BME280;49289;51.670;5.624;2023-03-23T05:25:21;100298.78;;;17.23;57.97
63194;BME280;49289;51.670;5.624;2023-03-23T05:27:08;100316.13;;;17.77;56.13
63194;BME280;49289;51.670;5.624;2023-03-23T05:28:56;100322.20;;;17.32;57.47
63194;BME280;49289;51.670;5.624;2023-03-23T05:30:45;100317.82;;;17.50;57.65
63194;BME280;49289;51.670;5.624;2023-03-23T05:32:33;100322.78;;;17.22;58.07
63194;BME280;49289;51.670;5.624;2023-03-23T05:34:21;100302.75;;;17.69;57.06
63194;BME280;49289;51.670;5.624;2023-03-23T05:36:10;100317.25;;;17.55;57.36
63194;BME280;49289;51.670;5.624;2023-03-23T05:37:57;100328.55;;;17.25;57.71
63194;BME280;49289;51.670;5.624;2023-03-23T05:39:46;100328.23;;;17.28;57.92
63194;BME280;49289;51.670;5.624;2023-03-23T05:41:34;100327.27;;;17.35;57.57
63194;BME280;49289;51.670;5.624;2023-03-23T05:43:21;100303.78;;;16.92;58.30
63194;BME280;49289;51.670;5.624;2023-03-23T05:45:09;100331.00;;;17.06;58.22
63194;BME280;49289;51.670;5.624;2023-03-23T05:46:56;100328.84;;;17.46;57.34
63194;BME280;49289;51.670;5.624;2023-03-23T05:48:43;100334.41;;;17.48;56.70
63194;BME280;49289;51.670;5.624;2023-03-23T05:50:30;100333.98;;;17.34;57.06
63194;BME280;49289;51.670;5.624;2023-03-23T05:52:17;100337.89;;;17.65;56.72
63194;BME280;49289;51.670;5.624;2023-03-23T05:54:04;100331.48;;;17.32;57.18
63194;BME280;49289;51.670;5.624;2023-03-23T05:55:52;100333.42;;;17.53;56.11
63194;BME280;49289;51.670;5.624;2023-03-23T05:57:40;100329.63;;;17.58;56.26
63194;BME280;49289;51.670;5.624;2023-03-23T05:59:28;100313.51;;;17.51;56.83
63194;BME280;49289;51.670;5.624;2023-03-23T06:01:18;100317.16;;;16.82;57.48
63194;BME280;49289;51.670;5.624;2023-03-23T06:03:07;100342.77;;;17.06;57.88
63194;BME280;49289;51.670;5.624;2023-03-23T06:04:55;100330.98;;;17.42;57.61
63194;BME280;49289;51.670;5.624;2023-03-23T06:06:42;100328.20;;;17.00;57.97
63194;BME280;49289;51.670;5.624;2023-03-23T06:08:29;100336.86;;;16.94;58.97
63194;BME280;49289;51.670;5.624;2023-03-23T06:10:17;100340.38;;;17.35;57.62
63194;BME280;49289;51.670;5.624;2023-03-23T06:12:05;100328.41;;;17.19;57.30
63194;BME280;49289;51.670;5.624;2023-03-23T06:13:53;100324.85;;;17.20;57.43
63194;BME280;49289;51.670;5.624;2023-03-23T06:15:40;100329.87;;;17.12;58.15
63194;BME280;49289;51.670;5.624;2023-03-23T06:17:27;100327.14;;;17.13;58.13
63194;BME280;49289;51.670;5.624;2023-03-23T06:19:14;100353.41;;;17.40;57.89
63194;BME280;49289;51.670;5.624;2023-03-23T06:21:01;100335.59;;;17.40;57.86
63194;BME280;49289;51.670;5.624;2023-03-23T06:22:48;100355.28;;;17.70;57.18
63194;BME280;49289;51.670;5.624;2023-03-23T06:24:36;100347.38;;;17.56;57.28
63194;BME280;49289;51.670;5.624;2023-03-23T06:26:25;100356.91;;;17.14;58.04
63194;BME280;49289;51.670;5.624;2023-03-23T06:28:13;100355.87;;;17.33;58.01
63194;BME280;49289;51.670;5.624;2023-03-23T06:30:01;100363.09;;;17.35;57.18
63194;BME280;49289;51.670;5.624;2023-03-23T06:31:49;100380.25;;;17.68;57.11
63194;BME280;49289;51.670;5.624;2023-03-23T06:33:35;100369.22;;;17.86;56.38
63194;BME280;49289;51.670;5.624;2023-03-23T06:35:22;100367.91;;;17.46;56.75
63194;BME280;49289;51.670;5.624;2023-03-23T06:37:09;100373.14;;;17.90;56.16
63194;BME280;49289;51.670;5.624;2023-03-23T06:38:57;100381.60;;;17.90;55.58
63194;BME280;49289;51.670;5.624;2023-03-23T06:40:45;100400.34;;;17.14;58.09
63194;BME280;49289;51.670;5.624;2023-03-23T06:42:34;100379.10;;;17.10;59.18
63194;BME280;49289;51.670;5.624;2023-03-23T06:44:21;100396.04;;;17.48;58.17
63194;BME280;49289;51.670;5.624;2023-03-23T06:46:11;100379.55;;;17.16;58.45
63194;BME280;49289;51.670;5.624;2023-03-23T06:47:58;100381.62;;;16.76;60.04
63194;BME280;49289;51.670;5.624;2023-03-23T06:49:47;100404.03;;;17.20;58.54
63194;BME280;49289;51.670;5.624;2023-03-23T06:51:35;100409.28;;;16.91;59.82
63194;BME280;49289;51.670;5.624;2023-03-23T06:53:23;100386.73;;;17.36;58.18
63194;BME280;49289;51.670;5.624;2023-03-23T06:55:11;100407.95;;;17.32;58.34
63194;BME280;49289;51.670;5.624;2023-03-23T06:56:58;100388.41;;;16.92;58.94
63194;BME280;49289;51.670;5.624;2023-03-23T06:58:45;100409.95;;;17.34;58.61
63194;BME280;49289;51.670;5.624;2023-03-23T07:00:32;100416.01;;;17.34;58.18
63194;BME280;49289;51.670;5.624;2023-03-23T07:02:20;100397.55;;;17.18;58.75
63194;BME280;49289;51.670;5.624;2023-03-23T07:04:07;100396.48;;;16.80;59.10
63194;BME280;49289;51.670;5.624;2023-03-23T07:05:58;100398.66;;;17.08;59.22
63194;BME280;49289;51.670;5.624;2023-03-23T07:07:45;100416.98;;;17.10;59.89
63194;BME280;49289;51.670;5.624;2023-03-23T07:09:32;100413.16;;;17.00;59.91
63194;BME280;49289;51.670;5.624;2023-03-23T07:11:19;100399.27;;;16.62;61.11
63194;BME280;49289;51.670;5.624;2023-03-23T07:13:06;100412.94;;;16.09;63.61
63194;BME280;49289;51.670;5.624;2023-03-23T07:14:53;100423.58;;;16.79;63.73
63194;BME280;49289;51.670;5.624;2023-03-23T07:16:40;100426.45;;;16.46;64.72
63194;BME280;49289;51.670;5.624;2023-03-23T07:18:27;100422.28;;;15.70;66.86
63194;BME280;49289;51.670;5.624;2023-03-23T07:20:15;100432.70;;;15.40;68.09
63194;BME280;49289;51.670;5.624;2023-03-23T07:22:03;100447.50;;;15.70;67.93
63194;BME280;49289;51.670;5.624;2023-03-23T07:23:50;100451.63;;;15.59;68.43
63194;BME280;49289;51.670;5.624;2023-03-23T07:25:38;100441.19;;;15.74;68.69
63194;BME280;49289;51.670;5.624;2023-03-23T07:27:25;100445.51;;;15.87;68.47
63194;BME280;49289;51.670;5.624;2023-03-23T07:29:13;100432.94;;;15.76;68.09
63194;BME280;49289;51.670;5.624;2023-03-23T07:31:02;100434.95;;;15.97;67.70
63194;BME280;49289;51.670;5.624;2023-03-23T07:32:49;100443.11;;;16.13;68.01
63194;BME280;49289;51.670;5.624;2023-03-23T07:34:37;100433.09;;;16.12;68.26
63194;BME280;49289;51.670;5.624;2023-03-23T07:36:26;100421.86;;;15.77;68.68
63194;BME280;49289;51.670;5.624;2023-03-23T07:38:14;100418.27;;;15.85;68.46
63194;BME280;49289;51.670;5.624;2023-03-23T07:40:02;100433.41;;;15.99;68.32
63194;BME280;49289;51.670;5.624;2023-03-23T07:41:49;100409.63;;;15.77;68.70
63194;BME280;49289;51.670;5.624;2023-03-23T07:43:38;100431.71;;;16.36;67.47
63194;BME280;49289;51.670;5.624;2023-03-23T07:45:26;100411.53;;;16.08;67.43
63194;BME280;49289;51.670;5.624;2023-03-23T07:47:14;100415.17;;;15.89;68.31
63194;BME280;49289;51.670;5.624;2023-03-23T07:49:02;100419.41;;;15.78;67.36
63194;BME280;49289;51.670;5.624;2023-03-23T07:50:50;100439.56;;;15.43;67.45
63194;BME280;49289;51.670;5.624;2023-03-23T07:52:38;100432.17;;;15.81;67.20
63194;BME280;49289;51.670;5.624;2023-03-23T07:54:26;100450.66;;;16.26;66.19
63194;BME280;49289;51.670;5.624;2023-03-23T07:56:14;100440.87;;;15.42;66.16
63194;BME280;49289;51.670;5.624;2023-03-23T07:58:01;100459.52;;;15.25;67.05
63194;BME280;49289;51.670;5.624;2023-03-23T07:59:48;100457.58;;;14.76;68.57
63194;BME280;49289;51.670;5.624;2023-03-23T08:01:35;100437.13;;;14.86;67.99
63194;BME280;49289;51.670;5.624;2023-03-23T08:03:22;100444.71;;;14.42;67.95
63194;BME280;49289;51.670;5.624;2023-03-23T08:05:10;100449.02;;;14.40;67.32
63194;BME280;49289;51.670;5.624;2023-03-23T08:06:58;100457.13;;;14.61;67.33
63194;BME280;49289;51.670;5.624;2023-03-23T08:08:46;100460.37;;;14.70;66.10
63194;BME280;49289;51.670;5.624;2023-03-23T08:10:36;100488.02;;;14.57;66.49
63194;BME280;49289;51.670;5.624;2023-03-23T08:12:24;100463.84;;;14.49;65.65
63194;BME280;49289;51.670;5.624;2023-03-23T08:14:12;100478.09;;;14.60;66.44
63194;BME280;49289;51.670;5.624;2023-03-23T08:15:59;100480.35;;;14.97;66.48
63194;BME280;49289;51.670;5.624;2023-03-23T08:17:46;100466.58;;;14.84;66.48
63194;BME280;49289;51.670;5.624;2023-03-23T08:19:34;100468.07;;;14.66;66.31
63194;BME280;49289;51.670;5.624;2023-03-23T08:21:21;100477.46;;;14.87;65.59
63194;BME280;49289;51.670;5.624;2023-03-23T08:23:08;100502.16;;;14.75;66.28
63194;BME280;49289;51.670;5.624;2023-03-23T08:24:55;100510.70;;;14.99;65.52
63194;BME280;49289;51.670;5.624;2023-03-23T08:26:42;100506.51;;;15.13;65.76
63194;BME280;49289;51.670;5.624;2023-03-23T08:28:29;100502.02;;;15.51;65.55
63194;BME280;49289;51.670;5.624;2023-03-23T08:30:18;100490.20;;;14.88;66.44
63194;BME280;49289;51.670;5.624;2023-03-23T08:32:05;100481.57;;;14.96;66.48
63194;BME280;49289;51.670;5.624;2023-03-23T08:33:52;100492.55;;;15.33;65.42
63194;BME280;49289;51.670;5.624;2023-03-23T08:35:39;100501.70;;;15.57;65.45
63194;BME280;49289;51.670;5.624;2023-03-23T08:37:26;100489.45;;;15.36;65.23
63194;BME280;49289;51.670;5.624;2023-03-23T08:39:13;100497.13;;;15.06;65.76
63194;BME280;49289;51.670;5.624;2023-03-23T08:41:03;100493.64;;;15.62;64.93
63194;BME280;49289;51.670;5.624;2023-03-23T08:42:50;100484.34;;;16.07;63.77
63194;BME280;49289;51.670;5.624;2023-03-23T08:44:36;100483.58;;;15.65;63.90
63194;BME280;49289;51.670;5.624;2023-03-23T08:46:23;100483.05;;;15.80;65.27
63194;BME280;49289;51.670;5.624;2023-03-23T08:48:10;100478.52;;;15.75;65.59
63194;BME280;49289;51.670;5.624;2023-03-23T08:49:59;100499.50;;;15.83;64.54
63194;BME280;49289;51.670;5.624;2023-03-23T08:51:47;100502.61;;;16.37;63.32
63194;BME280;49289;51.670;5.624;2023-03-23T08:53:35;100470.19;;;16.34;63.34
63194;BME280;49289;51.670;5.624;2023-03-23T08:55:23;100478.60;;;16.70;62.25
63194;BME280;49289;51.670;5.624;2023-03-23T08:57:11;100479.06;;;16.15;62.02
63194;BME280;49289;51.670;5.624;2023-03-23T08:58:59;100489.33;;;15.90;62.60
63194;BME280;49289;51.670;5.624;2023-03-23T09:00:47;100501.64;;;16.44;62.50
63194;BME280;49289;51.670;5.624;2023-03-23T09:02:34;100491.30;;;15.73;63.02
63194;BME280;49289;51.670;5.624;2023-03-23T09:04:21;100513.27;;;15.98;62.94
63194;BME280;49289;51.670;5.624;2023-03-23T09:06:11;100499.88;;;16.84;61.19
63194;BME280;49289;51.670;5.624;2023-03-23T09:07:58;100513.45;;;16.22;61.86
63194;BME280;49289;51.670;5.624;2023-03-23T09:09:45;100518.12;;;15.90;61.58
63194;BME280;49289;51.670;5.624;2023-03-23T09:11:32;100509.08;;;16.05;62.21
63194;BME280;49289;51.670;5.624;2023-03-23T09:13:19;100500.16;;;16.33;61.17
63194;BME280;49289;51.670;5.624;2023-03-23T09:15:08;100497.14;;;16.00;60.88
63194;BME280;49289;51.670;5.624;2023-03-23T09:16:54;100519.42;;;16.01;61.39
63194;BME280;49289;51.670;5.624;2023-03-23T09:18:42;100517.10;;;16.01;61.64
63194;BME280;49289;51.670;5.624;2023-03-23T09:20:31;100492.44;;;16.70;60.02
63194;BME280;49289;51.670;5.624;2023-03-23T09:22:18;100499.48;;;16.51;60.63
63194;BME280;49289;51.670;5.624;2023-03-23T09:24:05;100466.16;;;16.49;60.11
63194;BME280;49289;51.670;5.624;2023-03-23T09:25:53;100485.62;;;17.19;58.16
63194;BME280;49289;51.670;5.624;2023-03-23T09:27:42;100480.92;;;16.85;59.38
63194;BME280;49289;51.670;5.624;2023-03-23T09:29:29;100500.77;;;16.99;58.20
63194;BME280;49289;51.670;5.624;2023-03-23T09:31:18;100475.77;;;16.62;59.80